createdAt,value
2016-11-24T00:00:14.548Z,17.87
2016-11-24T00:00:46.868Z,17.94
2016-11-24T00:01:19.179Z,17.9
2016-11-24T00:01:51.484Z,17.9
2016-11-24T00:02:23.793Z,17.92
2016-11-24T00:02:56.100Z,17.92
2016-11-24T00:03:28.435Z,17.94
2016-11-24T00:04:00.770Z,17.9
2016-11-24T00:04:33.130Z,17.9
2016-11-24T00:05:05.438Z,17.9
2016-11-24T00:05:37.740Z,17.9
2016-11-24T00:06:10.058Z,17.92
2016-11-24T00:06:42.391Z,17.88
2016-11-24T00:07:14.702Z,17.92
2016-11-24T00:07:47.023Z,17.9
2016-11-24T00:08:19.336Z,17.88
2016-11-24T00:08:51.654Z,17.96
2016-11-24T00:09:23.965Z,17.9
2016-11-24T00:09:56.287Z,17.9
2016-11-24T00:10:28.621Z,17.9
2016-11-24T00:11:00.938Z,17.88
2016-11-24T00:11:33.258Z,17.86
2016-11-24T00:12:05.572Z,17.92
2016-11-24T00:12:37.889Z,17.95
2016-11-24T00:13:10.240Z,17.87
2016-11-24T00:13:42.563Z,17.9
2016-11-24T00:14:14.902Z,17.99
2016-11-24T00:14:47.223Z,17.84
2016-11-24T00:15:19.536Z,17.94
2016-11-24T00:15:51.854Z,17.88
2016-11-24T00:16:24.167Z,17.94
2016-11-24T00:16:56.471Z,17.9
2016-11-24T00:17:28.781Z,17.92
2016-11-24T00:18:01.104Z,17.88
2016-11-24T00:18:33.436Z,17.9
2016-11-24T00:19:05.771Z,17.88
2016-11-24T00:19:38.122Z,17.88
2016-11-24T00:20:10.437Z,17.87
2016-11-24T00:20:42.748Z,17.9
2016-11-24T00:21:15.079Z,17.95
2016-11-24T00:21:47.393Z,17.92
2016-11-24T00:22:19.711Z,17.94
2016-11-24T00:22:52.020Z,17.92
2016-11-24T00:23:24.328Z,17.9
2016-11-24T00:23:56.670Z,17.88
2016-11-24T00:24:28.969Z,17.88
2016-11-24T00:25:01.285Z,17.9
2016-11-24T00:25:33.611Z,17.87
2016-11-24T00:26:05.936Z,17.88
2016-11-24T00:26:38.257Z,17.88
2016-11-24T00:27:10.564Z,17.95
2016-11-24T00:27:42.887Z,17.88
2016-11-24T00:28:15.216Z,17.88
2016-11-24T00:28:47.546Z,17.9
2016-11-24T00:29:19.872Z,17.88
2016-11-24T00:29:52.197Z,17.95
2016-11-24T00:30:24.525Z,17.87
2016-11-24T00:30:56.835Z,17.9
2016-11-24T00:31:29.163Z,17.9
2016-11-24T00:32:01.505Z,17.92
2016-11-24T00:32:33.834Z,17.92
2016-11-24T00:33:06.158Z,17.92
2016-11-24T00:33:38.474Z,17.95
2016-11-24T00:34:10.795Z,17.88
2016-11-24T00:34:43.117Z,17.92
2016-11-24T00:35:15.441Z,17.87
2016-11-24T00:35:47.774Z,17.9
2016-11-24T00:36:20.081Z,17.86
2016-11-24T00:36:52.378Z,17.87
2016-11-24T00:37:24.709Z,17.88
2016-11-24T00:37:57.045Z,17.9
2016-11-24T00:38:29.356Z,17.87
2016-11-24T00:39:01.684Z,17.88
2016-11-24T00:39:34.007Z,17.88
2016-11-24T00:40:06.312Z,17.96
2016-11-24T00:40:38.619Z,17.94
2016-11-24T00:41:10.950Z,17.9
2016-11-24T00:41:43.370Z,17.88
2016-11-24T00:42:15.699Z,17.87
2016-11-24T00:42:48.028Z,17.94
2016-11-24T00:43:20.336Z,17.87
2016-11-24T00:43:52.660Z,17.9
2016-11-24T00:44:24.983Z,17.87
2016-11-24T00:44:57.303Z,17.94
2016-11-24T00:45:29.622Z,17.94
2016-11-24T00:46:01.943Z,17.95
2016-11-24T00:46:34.252Z,17.9
2016-11-24T00:47:06.590Z,17.9
2016-11-24T00:47:38.909Z,17.88
2016-11-24T00:48:11.224Z,17.9
2016-11-24T00:48:43.546Z,17.92
2016-11-24T00:49:15.860Z,17.88
2016-11-24T00:49:48.177Z,17.92
2016-11-24T00:50:20.520Z,17.88
2016-11-24T00:50:52.869Z,17.88
2016-11-24T00:51:25.185Z,17.9
2016-11-24T00:51:57.524Z,17.88
2016-11-24T00:52:29.840Z,17.88
2016-11-24T00:53:02.183Z,17.9
2016-11-24T00:53:34.533Z,17.9
2016-11-24T00:54:06.858Z,17.9
2016-11-24T00:54:39.173Z,17.94
2016-11-24T00:55:11.492Z,17.9
2016-11-24T00:55:43.816Z,17.94
2016-11-24T00:56:16.134Z,17.92
2016-11-24T00:56:48.451Z,17.92
2016-11-24T00:57:20.743Z,17.86
2016-11-24T00:57:53.047Z,17.95
2016-11-24T00:58:25.371Z,17.83
2016-11-24T00:58:57.702Z,17.92
2016-11-24T00:59:30.066Z,17.95
2016-11-24T01:00:02.387Z,17.92
2016-11-24T01:00:34.764Z,17.9
2016-11-24T01:01:07.074Z,17.95
2016-11-24T01:01:39.395Z,17.9
2016-11-24T01:02:11.715Z,17.9
2016-11-24T01:02:44.041Z,17.87
2016-11-24T01:03:16.349Z,17.98
2016-11-24T01:03:48.702Z,17.9
2016-11-24T01:04:21.019Z,17.87
2016-11-24T01:04:53.326Z,17.94
2016-11-24T01:05:25.651Z,17.88
2016-11-24T01:05:57.968Z,17.9
2016-11-24T01:06:30.290Z,17.92
2016-11-24T01:07:02.624Z,17.88
2016-11-24T01:07:34.933Z,17.86
2016-11-24T01:08:07.242Z,17.9
2016-11-24T01:08:39.564Z,17.87
2016-11-24T01:09:11.891Z,17.92
2016-11-24T01:09:44.197Z,17.88
2016-11-24T01:10:16.563Z,17.9
2016-11-24T01:10:48.887Z,17.88
2016-11-24T01:11:21.190Z,17.94
2016-11-24T01:11:53.538Z,17.9
2016-11-24T01:12:25.856Z,17.96
2016-11-24T01:12:58.161Z,17.96
2016-11-24T01:13:30.476Z,17.88
2016-11-24T01:14:02.797Z,17.92
2016-11-24T01:14:35.136Z,17.95
2016-11-24T01:15:07.443Z,17.88
2016-11-24T01:15:39.776Z,17.92
2016-11-24T01:16:12.109Z,17.88
2016-11-24T01:16:44.425Z,17.96
2016-11-24T01:17:16.758Z,17.9
2016-11-24T01:17:49.082Z,17.88
2016-11-24T01:18:21.400Z,17.87
2016-11-24T01:18:53.705Z,17.92
2016-11-24T01:19:26.042Z,17.92
2016-11-24T01:19:58.350Z,17.94
2016-11-24T01:20:30.679Z,17.95
2016-11-24T01:21:02.992Z,17.87
2016-11-24T01:21:35.303Z,17.9
2016-11-24T01:22:07.631Z,17.9
2016-11-24T01:22:39.953Z,17.92
2016-11-24T01:23:12.264Z,17.86
2016-11-24T01:23:44.587Z,17.9
2016-11-24T01:24:16.906Z,17.84
2016-11-24T01:24:49.222Z,17.92
2016-11-24T01:25:21.572Z,17.9
2016-11-24T01:25:53.883Z,17.96
2016-11-24T01:26:26.209Z,17.94
2016-11-24T01:26:58.528Z,17.87
2016-11-24T01:27:30.834Z,17.9
2016-11-24T01:28:03.158Z,17.86
2016-11-24T01:28:35.484Z,17.88
2016-11-24T01:29:07.793Z,17.94
2016-11-24T01:29:40.113Z,17.87
2016-11-24T01:30:12.431Z,17.95
2016-11-24T01:30:44.766Z,17.87
2016-11-24T01:31:17.100Z,17.86
2016-11-24T01:31:49.454Z,17.87
2016-11-24T01:32:21.768Z,17.94
2016-11-24T01:32:54.103Z,17.87
2016-11-24T01:33:26.421Z,17.86
2016-11-24T01:33:58.734Z,17.9
2016-11-24T01:34:31.072Z,17.87
2016-11-24T01:35:03.395Z,17.87
2016-11-24T01:35:35.706Z,17.9
2016-11-24T01:36:08.047Z,17.9
2016-11-24T01:36:40.359Z,17.9
2016-11-24T01:37:12.674Z,17.94
2016-11-24T01:37:44.988Z,17.88
2016-11-24T01:38:17.329Z,17.84
2016-11-24T01:38:49.650Z,17.86
2016-11-24T01:39:21.975Z,17.88
2016-11-24T01:39:54.297Z,17.86
2016-11-24T01:40:26.611Z,17.87
2016-11-24T01:40:58.924Z,17.92
2016-11-24T01:41:31.249Z,17.88
2016-11-24T01:42:03.550Z,17.95
2016-11-24T01:42:35.855Z,17.94
2016-11-24T01:43:08.191Z,17.9
2016-11-24T01:43:40.517Z,17.88
2016-11-24T01:44:12.831Z,17.88
2016-11-24T01:44:45.179Z,17.84
2016-11-24T01:45:17.505Z,17.9
2016-11-24T01:45:49.840Z,17.9
2016-11-24T01:46:22.159Z,17.87
2016-11-24T01:46:54.486Z,17.95
2016-11-24T01:47:26.809Z,17.83
2016-11-24T01:47:59.134Z,17.87
2016-11-24T01:48:31.447Z,17.96
2016-11-24T01:49:03.742Z,17.9
2016-11-24T01:49:36.069Z,17.9
2016-11-24T01:50:08.383Z,17.88
2016-11-24T01:50:40.711Z,17.92
2016-11-24T01:51:13.030Z,17.95
2016-11-24T01:51:45.333Z,17.94
2016-11-24T01:52:17.653Z,17.88
2016-11-24T01:52:49.959Z,17.83
2016-11-24T01:53:22.269Z,17.88
2016-11-24T01:53:54.620Z,17.94
2016-11-24T01:54:26.939Z,17.87
2016-11-24T01:54:59.277Z,17.88
2016-11-24T01:55:31.589Z,17.88
2016-11-24T01:56:03.898Z,17.94
2016-11-24T01:56:36.216Z,17.92
2016-11-24T01:57:08.547Z,17.87
2016-11-24T01:57:40.849Z,17.87
2016-11-24T01:58:13.182Z,17.9
2016-11-24T01:58:45.496Z,17.96
2016-11-24T01:59:17.823Z,17.9
2016-11-24T01:59:50.123Z,17.88
2016-11-24T02:00:22.461Z,17.87
2016-11-24T02:00:54.783Z,17.92
2016-11-24T02:01:27.123Z,17.88
2016-11-24T02:01:59.443Z,17.94
2016-11-24T02:02:31.768Z,17.94
2016-11-24T02:03:04.077Z,17.84
2016-11-24T02:03:36.402Z,17.87
2016-11-24T02:04:08.703Z,17.87
2016-11-24T02:04:41.026Z,17.9
2016-11-24T02:05:13.352Z,17.95
2016-11-24T02:05:45.659Z,17.94
2016-11-24T02:06:17.975Z,17.95
2016-11-24T02:06:50.265Z,17.87
2016-11-24T02:07:22.575Z,17.88
2016-11-24T02:07:54.926Z,17.87
2016-11-24T02:08:27.250Z,17.86
2016-11-24T02:08:59.561Z,17.92
2016-11-24T02:09:31.871Z,17.9
2016-11-24T02:10:04.185Z,17.88
2016-11-24T02:10:36.514Z,17.86
2016-11-24T02:11:08.835Z,17.9
2016-11-24T02:11:41.155Z,17.87
2016-11-24T02:12:13.491Z,17.92
2016-11-24T02:12:45.816Z,17.9
2016-11-24T02:13:18.127Z,17.94
2016-11-24T02:13:50.437Z,17.92
2016-11-24T02:14:22.744Z,17.9
2016-11-24T02:14:55.051Z,17.84
2016-11-24T02:15:27.407Z,17.94
2016-11-24T02:15:59.722Z,17.86
2016-11-24T02:16:32.057Z,17.94
2016-11-24T02:17:04.415Z,17.9
2016-11-24T02:17:36.724Z,17.87
2016-11-24T02:18:09.077Z,17.9
2016-11-24T02:18:41.410Z,17.87
2016-11-24T02:19:13.720Z,17.9
2016-11-24T02:19:46.031Z,17.95
2016-11-24T02:20:18.346Z,17.9
2016-11-24T02:20:50.664Z,17.86
2016-11-24T02:21:22.975Z,17.88
2016-11-24T02:21:55.307Z,17.95
2016-11-24T02:22:27.622Z,17.88
2016-11-24T02:22:59.945Z,17.88
2016-11-24T02:23:32.276Z,17.87
2016-11-24T02:24:04.591Z,17.88
2016-11-24T02:24:36.922Z,17.94
2016-11-24T02:25:09.232Z,17.87
2016-11-24T02:25:41.546Z,17.87
2016-11-24T02:26:13.863Z,17.88
2016-11-24T02:26:46.176Z,17.99
2016-11-24T02:27:18.486Z,17.92
2016-11-24T02:27:50.793Z,17.88
2016-11-24T02:28:23.107Z,17.87
2016-11-24T02:28:55.443Z,17.92
2016-11-24T02:29:27.756Z,17.87
2016-11-24T02:30:00.071Z,17.9
2016-11-24T02:30:32.377Z,17.88
2016-11-24T02:31:04.682Z,17.84
2016-11-24T02:31:37.001Z,17.86
2016-11-24T02:32:09.313Z,17.9
2016-11-24T02:32:41.625Z,17.9
2016-11-24T02:33:13.946Z,17.86
2016-11-24T02:33:46.267Z,17.9
2016-11-24T02:34:18.571Z,17.92
2016-11-24T02:34:50.927Z,17.96
2016-11-24T02:35:23.261Z,17.87
2016-11-24T02:35:55.585Z,17.88
2016-11-24T02:36:27.915Z,17.87
2016-11-24T02:37:00.237Z,17.94
2016-11-24T02:37:32.568Z,17.88
2016-11-24T02:38:04.902Z,17.99
2016-11-24T02:38:37.212Z,17.95
2016-11-24T02:39:09.560Z,17.94
2016-11-24T02:39:41.880Z,17.94
2016-11-24T02:40:14.210Z,17.9
2016-11-24T02:40:47.476Z,17.87
2016-11-24T02:41:19.768Z,17.92
2016-11-24T02:41:52.082Z,17.95
2016-11-24T02:42:24.409Z,17.87
2016-11-24T02:42:56.735Z,17.88
2016-11-24T02:43:29.056Z,17.87
2016-11-24T02:44:01.380Z,17.87
2016-11-24T02:44:33.712Z,17.92
2016-11-24T02:45:06.014Z,17.88
2016-11-24T02:45:38.343Z,17.88
2016-11-24T02:46:10.670Z,17.88
2016-11-24T02:46:42.975Z,17.88
2016-11-24T02:47:15.294Z,17.88
2016-11-24T02:47:47.621Z,17.9
2016-11-24T02:48:19.937Z,17.87
2016-11-24T02:48:52.238Z,17.9
2016-11-24T02:49:24.537Z,17.88
2016-11-24T02:49:56.869Z,17.87
2016-11-24T02:50:29.185Z,17.94
2016-11-24T02:51:01.513Z,17.9
2016-11-24T02:51:33.826Z,17.88
2016-11-24T02:52:06.157Z,17.87
2016-11-24T02:52:38.476Z,17.88
2016-11-24T02:53:10.783Z,17.94
2016-11-24T02:53:43.086Z,17.87
2016-11-24T02:54:15.392Z,17.9
2016-11-24T02:54:47.707Z,17.87
2016-11-24T02:55:20.026Z,17.96
2016-11-24T02:55:52.349Z,17.95
2016-11-24T02:56:24.682Z,17.92
2016-11-24T02:56:56.999Z,17.96
2016-11-24T02:57:29.331Z,17.95
2016-11-24T02:58:01.642Z,17.92
2016-11-24T02:58:33.975Z,17.88
2016-11-24T02:59:06.282Z,17.86
2016-11-24T02:59:38.594Z,17.88
2016-11-24T03:00:10.920Z,17.88
2016-11-24T03:00:43.244Z,17.84
2016-11-24T03:01:15.554Z,17.9
2016-11-24T03:01:47.883Z,17.88
2016-11-24T03:02:20.208Z,17.87
2016-11-24T03:02:52.522Z,17.94
2016-11-24T03:03:24.845Z,17.88
2016-11-24T03:03:57.151Z,17.9
2016-11-24T03:04:29.474Z,17.88
2016-11-24T03:05:01.812Z,17.87
2016-11-24T03:05:34.168Z,17.87
2016-11-24T03:06:06.497Z,17.88
2016-11-24T03:06:38.839Z,17.88
2016-11-24T03:07:11.156Z,17.88
2016-11-24T03:07:43.475Z,17.95
2016-11-24T03:08:15.781Z,17.88
2016-11-24T03:08:48.114Z,17.87
2016-11-24T03:09:20.469Z,17.87
2016-11-24T03:09:52.819Z,17.98
2016-11-24T03:10:25.150Z,17.88
2016-11-24T03:10:57.457Z,17.88
2016-11-24T03:11:29.800Z,17.92
2016-11-24T03:12:02.105Z,17.98
2016-11-24T03:12:34.398Z,17.88
2016-11-24T03:13:06.771Z,17.86
2016-11-24T03:13:39.084Z,17.95
2016-11-24T03:14:11.375Z,17.86
2016-11-24T03:14:43.686Z,17.96
2016-11-24T03:15:16.008Z,17.88
2016-11-24T03:15:48.330Z,17.88
2016-11-24T03:16:20.635Z,17.9
2016-11-24T03:16:52.961Z,17.88
2016-11-24T03:17:25.269Z,17.88
2016-11-24T03:17:57.574Z,17.96
2016-11-24T03:18:29.886Z,17.9
2016-11-24T03:19:02.224Z,17.88
2016-11-24T03:19:34.586Z,17.94
2016-11-24T03:20:06.933Z,17.94
2016-11-24T03:20:39.254Z,17.92
2016-11-24T03:21:11.591Z,17.92
2016-11-24T03:21:43.909Z,18.01
2016-11-24T03:22:16.231Z,17.86
2016-11-24T03:22:48.556Z,17.88
2016-11-24T03:23:20.883Z,17.88
2016-11-24T03:23:53.199Z,17.9
2016-11-24T03:24:25.533Z,17.9
2016-11-24T03:24:57.863Z,17.88
2016-11-24T03:25:30.197Z,17.95
2016-11-24T03:26:02.531Z,17.95
2016-11-24T03:26:34.885Z,17.88
2016-11-24T03:27:07.212Z,17.9
2016-11-24T03:27:39.542Z,17.88
2016-11-24T03:28:11.869Z,17.94
2016-11-24T03:28:44.178Z,17.96
2016-11-24T03:29:16.502Z,17.99
2016-11-24T03:29:48.818Z,17.95
2016-11-24T03:30:21.149Z,17.87
2016-11-24T03:30:53.477Z,17.94
2016-11-24T03:31:25.798Z,17.88
2016-11-24T03:31:58.112Z,17.92
2016-11-24T03:32:30.443Z,17.96
2016-11-24T03:33:02.763Z,17.92
2016-11-24T03:33:35.097Z,17.9
2016-11-24T03:34:07.420Z,17.9
2016-11-24T03:34:39.744Z,17.95
2016-11-24T03:35:12.057Z,17.88
2016-11-24T03:35:44.378Z,17.88
2016-11-24T03:36:16.693Z,17.94
2016-11-24T03:36:49.005Z,17.96
2016-11-24T03:37:21.331Z,17.92
2016-11-24T03:37:53.658Z,17.96
2016-11-24T03:38:25.980Z,17.92
2016-11-24T03:38:58.315Z,17.95
2016-11-24T03:39:30.630Z,17.92
2016-11-24T03:40:02.946Z,18.01
2016-11-24T03:40:35.275Z,17.94
2016-11-24T03:41:07.581Z,17.88
2016-11-24T03:41:39.890Z,17.9
2016-11-24T03:42:12.222Z,17.88
2016-11-24T03:42:44.541Z,17.95
2016-11-24T03:43:16.865Z,17.95
2016-11-24T03:43:49.197Z,17.95
2016-11-24T03:44:21.524Z,17.94
2016-11-24T03:44:53.841Z,17.94
2016-11-24T03:45:26.163Z,17.95
2016-11-24T03:45:58.489Z,17.9
2016-11-24T03:46:30.821Z,17.92
2016-11-24T03:47:03.148Z,17.9
2016-11-24T03:47:35.455Z,17.98
2016-11-24T03:48:07.805Z,17.95
2016-11-24T03:48:40.118Z,17.92
2016-11-24T03:49:12.422Z,17.94
2016-11-24T03:49:44.744Z,17.9
2016-11-24T03:50:17.070Z,17.92
2016-11-24T03:50:49.380Z,17.88
2016-11-24T03:51:21.702Z,17.9
2016-11-24T03:51:54.035Z,17.9
2016-11-24T03:52:26.304Z,17.94
2016-11-24T03:52:58.626Z,17.94
2016-11-24T03:53:30.988Z,17.95
2016-11-24T03:54:03.316Z,17.94
2016-11-24T03:54:35.671Z,17.98
2016-11-24T03:55:08.038Z,17.95
2016-11-24T03:55:40.359Z,17.95
2016-11-24T03:56:12.691Z,17.92
2016-11-24T03:56:45.004Z,17.92
2016-11-24T03:57:17.324Z,17.95
2016-11-24T03:57:49.650Z,17.96
2016-11-24T03:58:21.995Z,17.98
2016-11-24T03:58:54.305Z,17.95
2016-11-24T03:59:26.615Z,17.98
2016-11-24T03:59:58.932Z,17.96
2016-11-24T04:00:31.249Z,17.99
2016-11-24T04:01:03.615Z,17.94
2016-11-24T04:01:35.931Z,17.9
2016-11-24T04:02:08.241Z,17.95
2016-11-24T04:02:40.543Z,17.95
2016-11-24T04:03:12.844Z,17.98
2016-11-24T04:03:45.157Z,17.95
2016-11-24T04:04:17.481Z,17.98
2016-11-24T04:04:49.801Z,17.98
2016-11-24T04:05:22.110Z,17.98
2016-11-24T04:05:54.440Z,17.94
2016-11-24T04:06:26.790Z,17.98
2016-11-24T04:06:59.091Z,17.98
2016-11-24T04:07:31.434Z,17.99
2016-11-24T04:08:03.745Z,17.94
2016-11-24T04:08:36.080Z,17.98
2016-11-24T04:09:08.436Z,17.98
2016-11-24T04:09:40.746Z,17.92
2016-11-24T04:10:13.074Z,17.88
2016-11-24T04:10:45.399Z,17.9
2016-11-24T04:11:17.729Z,17.96
2016-11-24T04:11:50.054Z,17.99
2016-11-24T04:12:22.377Z,17.92
2016-11-24T04:12:54.686Z,18.05
2016-11-24T04:13:27.009Z,17.99
2016-11-24T04:13:59.323Z,17.95
2016-11-24T04:14:31.640Z,17.99
2016-11-24T04:15:03.947Z,18.01
2016-11-24T04:15:36.274Z,18.02
2016-11-24T04:16:08.597Z,17.95
2016-11-24T04:16:40.919Z,17.94
2016-11-24T04:17:13.298Z,17.98
2016-11-24T04:17:45.605Z,17.94
2016-11-24T04:18:17.921Z,17.99
2016-11-24T04:18:50.231Z,17.95
2016-11-24T04:19:22.549Z,17.96
2016-11-24T04:19:54.886Z,17.95
2016-11-24T04:20:27.202Z,18.01
2016-11-24T04:20:59.523Z,18.01
2016-11-24T04:21:31.847Z,17.96
2016-11-24T04:22:04.175Z,18.01
2016-11-24T04:22:36.540Z,18.06
2016-11-24T04:23:08.863Z,17.98
2016-11-24T04:23:41.182Z,18.01
2016-11-24T04:24:13.486Z,18.02
2016-11-24T04:24:45.813Z,18.02
2016-11-24T04:25:18.131Z,17.98
2016-11-24T04:25:50.446Z,18.01
2016-11-24T04:26:22.745Z,18.02
2016-11-24T04:26:55.072Z,18.01
2016-11-24T04:27:27.386Z,18.01
2016-11-24T04:27:59.703Z,17.98
2016-11-24T04:28:32.033Z,17.98
2016-11-24T04:29:04.355Z,18.03
2016-11-24T04:29:36.661Z,18.01
2016-11-24T04:30:08.968Z,17.99
2016-11-24T04:30:41.306Z,18.01
2016-11-24T04:31:13.618Z,18.03
2016-11-24T04:31:45.940Z,17.98
2016-11-24T04:32:18.294Z,18.06
2016-11-24T04:32:50.622Z,18.02
2016-11-24T04:33:22.936Z,18.05
2016-11-24T04:33:55.227Z,18.01
2016-11-24T04:34:27.527Z,18.05
2016-11-24T04:34:59.898Z,18.01
2016-11-24T04:35:32.243Z,17.98
2016-11-24T04:36:04.569Z,18.05
2016-11-24T04:36:36.897Z,18.1
2016-11-24T04:37:09.218Z,17.98
2016-11-24T04:37:41.537Z,18.08
2016-11-24T04:38:13.863Z,18.1
2016-11-24T04:38:46.182Z,18.03
2016-11-24T04:39:18.514Z,18.03
2016-11-24T04:39:50.825Z,18.08
2016-11-24T04:40:23.162Z,18.08
2016-11-24T04:40:55.483Z,17.95
2016-11-24T04:41:27.801Z,18.01
2016-11-24T04:42:00.110Z,17.99
2016-11-24T04:42:32.415Z,18.06
2016-11-24T04:43:04.719Z,18.05
2016-11-24T04:43:37.034Z,17.99
2016-11-24T04:44:09.338Z,18.08
2016-11-24T04:44:41.646Z,18.1
2016-11-24T04:45:13.980Z,18.08
2016-11-24T04:45:46.311Z,18.13
2016-11-24T04:46:18.638Z,18.1
2016-11-24T04:46:50.947Z,18.01
2016-11-24T04:47:23.272Z,18.08
2016-11-24T04:47:55.581Z,18.06
2016-11-24T04:48:27.903Z,18.02
2016-11-24T04:49:00.233Z,18.08
2016-11-24T04:49:32.581Z,18.08
2016-11-24T04:50:04.897Z,18.05
2016-11-24T04:50:37.218Z,18.06
2016-11-24T04:51:09.538Z,18.08
2016-11-24T04:51:41.870Z,18.06
2016-11-24T04:52:14.186Z,18.08
2016-11-24T04:52:46.501Z,18.05
2016-11-24T04:53:18.826Z,18.08
2016-11-24T04:53:51.155Z,18.03
2016-11-24T04:54:23.523Z,18.02
2016-11-24T04:54:55.843Z,17.95
2016-11-24T04:55:28.166Z,18.01
2016-11-24T04:56:00.497Z,18.13
2016-11-24T04:56:32.826Z,18.05
2016-11-24T04:57:05.142Z,18.08
2016-11-24T04:57:37.463Z,18.05
2016-11-24T04:58:09.774Z,18.05
2016-11-24T04:58:42.084Z,18.06
2016-11-24T04:59:14.419Z,18.05
2016-11-24T04:59:46.724Z,18.14
2016-11-24T05:00:19.066Z,18.17
2016-11-24T05:00:51.381Z,18.08
2016-11-24T05:01:23.719Z,18.1
2016-11-24T05:01:56.035Z,18.01
2016-11-24T05:02:28.353Z,18.06
2016-11-24T05:03:00.668Z,18.1
2016-11-24T05:03:32.987Z,18.08
2016-11-24T05:04:05.320Z,18.08
2016-11-24T05:04:37.637Z,18.13
2016-11-24T05:05:09.954Z,18.1
2016-11-24T05:05:42.275Z,18.16
2016-11-24T05:06:14.623Z,18.1
2016-11-24T05:06:46.934Z,18.17
2016-11-24T05:07:19.226Z,18.02
2016-11-24T05:07:51.548Z,18.05
2016-11-24T05:08:23.907Z,18.05
2016-11-24T05:08:56.217Z,18.08
2016-11-24T05:09:28.545Z,18.08
2016-11-24T05:10:00.902Z,18.06
2016-11-24T05:10:33.233Z,18.06
2016-11-24T05:11:05.547Z,18.05
2016-11-24T05:11:37.848Z,18.03
2016-11-24T05:12:10.170Z,18.08
2016-11-24T05:12:42.506Z,18.05
2016-11-24T05:13:14.828Z,18.1
2016-11-24T05:13:47.163Z,18.19
2016-11-24T05:14:19.472Z,18.02
2016-11-24T05:14:51.791Z,18.03
2016-11-24T05:15:24.127Z,18.06
2016-11-24T05:15:56.463Z,18.01
2016-11-24T05:16:28.782Z,18.03
2016-11-24T05:17:01.125Z,18.06
2016-11-24T05:17:33.454Z,18.05
2016-11-24T05:18:05.778Z,18.06
2016-11-24T05:18:38.133Z,18.05
2016-11-24T05:19:10.440Z,18.16
2016-11-24T05:19:42.755Z,18.14
2016-11-24T05:20:15.083Z,18.14
2016-11-24T05:20:47.416Z,18.03
2016-11-24T05:21:19.738Z,18.2
2016-11-24T05:21:52.062Z,18.1
2016-11-24T05:22:24.390Z,18.06
2016-11-24T05:22:56.719Z,18.13
2016-11-24T05:23:29.029Z,18.17
2016-11-24T05:24:01.354Z,18.21
2016-11-24T05:24:33.667Z,18.17
2016-11-24T05:25:05.989Z,18.17
2016-11-24T05:25:39.039Z,18.13
2016-11-24T05:26:11.368Z,18.08
2016-11-24T05:26:43.673Z,18.08
2016-11-24T05:27:15.991Z,18.13
2016-11-24T05:27:48.319Z,18.17
2016-11-24T05:28:20.646Z,18.13
2016-11-24T05:28:52.962Z,18.17
2016-11-24T05:29:25.283Z,18.1
2016-11-24T05:29:57.638Z,18.19
2016-11-24T05:30:29.950Z,18.16
2016-11-24T05:31:02.266Z,18.21
2016-11-24T05:31:34.591Z,18.16
2016-11-24T05:32:06.945Z,18.16
2016-11-24T05:32:39.276Z,18.21
2016-11-24T05:33:11.597Z,18.11
2016-11-24T05:33:43.915Z,18.17
2016-11-24T05:34:16.231Z,18.2
2016-11-24T05:34:48.548Z,18.08
2016-11-24T05:35:20.846Z,18.17
2016-11-24T05:35:53.164Z,18.16
2016-11-24T05:36:25.491Z,18.17
2016-11-24T05:36:57.790Z,18.21
2016-11-24T05:37:30.107Z,18.23
2016-11-24T05:38:02.432Z,18.03
2016-11-24T05:38:34.742Z,18.23
2016-11-24T05:39:07.058Z,18.16
2016-11-24T05:39:39.389Z,18.16
2016-11-24T05:40:11.720Z,18.14
2016-11-24T05:40:44.050Z,18.13
2016-11-24T05:41:16.372Z,18.16
2016-11-24T05:41:48.680Z,18.21
2016-11-24T05:42:21.002Z,18.14
2016-11-24T05:42:53.298Z,18.19
2016-11-24T05:43:25.625Z,18.16
2016-11-24T05:43:57.956Z,18.23
2016-11-24T05:44:30.265Z,18.21
2016-11-24T05:45:02.572Z,18.19
2016-11-24T05:45:34.893Z,18.19
2016-11-24T05:46:07.209Z,18.26
2016-11-24T05:46:39.527Z,18.17
2016-11-24T05:47:11.854Z,18.13
2016-11-24T05:47:44.171Z,18.21
2016-11-24T05:48:16.532Z,18.17
2016-11-24T05:48:48.839Z,18.24
2016-11-24T05:49:21.141Z,18.21
2016-11-24T05:49:53.455Z,18.11
2016-11-24T05:50:25.777Z,18.19
2016-11-24T05:50:58.110Z,18.13
2016-11-24T05:51:30.433Z,18.19
2016-11-24T05:52:02.754Z,18.21
2016-11-24T05:52:35.088Z,18.2
2016-11-24T05:53:07.406Z,18.2
2016-11-24T05:53:39.728Z,18.24
2016-11-24T05:54:12.036Z,18.24
2016-11-24T05:54:44.353Z,18.24
2016-11-24T05:55:16.683Z,18.21
2016-11-24T05:55:49.005Z,18.23
2016-11-24T05:56:21.301Z,18.21
2016-11-24T05:56:53.612Z,18.19
2016-11-24T05:57:25.916Z,18.17
2016-11-24T05:57:58.221Z,18.21
2016-11-24T05:58:30.573Z,18.19
2016-11-24T05:59:02.906Z,18.17
2016-11-24T05:59:35.229Z,18.2
2016-11-24T06:00:07.554Z,18.23
2016-11-24T06:00:39.865Z,18.24
2016-11-24T06:01:12.197Z,18.26
2016-11-24T06:01:44.512Z,18.19
2016-11-24T06:02:16.821Z,18.2
2016-11-24T06:02:49.150Z,18.21
2016-11-24T06:03:21.476Z,18.2
2016-11-24T06:03:53.805Z,18.26
2016-11-24T06:04:26.123Z,18.21
2016-11-24T06:04:58.416Z,18.23
2016-11-24T06:05:30.730Z,18.17
2016-11-24T06:06:03.081Z,18.23
2016-11-24T06:06:35.415Z,18.14
2016-11-24T06:07:07.707Z,18.16
2016-11-24T06:07:40.037Z,18.2
2016-11-24T06:08:12.356Z,18.17
2016-11-24T06:08:45.409Z,18.17
2016-11-24T06:09:17.713Z,18.13
2016-11-24T06:09:50.019Z,18.11
2016-11-24T06:10:22.331Z,18.17
2016-11-24T06:10:54.649Z,18.16
2016-11-24T06:11:26.963Z,18.17
2016-11-24T06:11:59.281Z,18.13
2016-11-24T06:12:31.592Z,18.24
2016-11-24T06:13:03.892Z,18.14
2016-11-24T06:13:36.200Z,18.2
2016-11-24T06:14:08.509Z,18.16
2016-11-24T06:14:40.833Z,18.21
2016-11-24T06:15:13.149Z,18.17
2016-11-24T06:15:45.449Z,18.2
2016-11-24T06:16:17.766Z,18.24
2016-11-24T06:16:50.080Z,18.21
2016-11-24T06:17:22.402Z,18.2
2016-11-24T06:17:54.709Z,18.2
2016-11-24T06:18:27.030Z,18.16
2016-11-24T06:18:59.318Z,18.24
2016-11-24T06:19:31.636Z,18.19
2016-11-24T06:20:03.981Z,18.17
2016-11-24T06:20:36.304Z,18.16
2016-11-24T06:21:08.618Z,18.17
2016-11-24T06:21:40.931Z,18.19
2016-11-24T06:22:13.267Z,18.17
2016-11-24T06:22:45.600Z,18.26
2016-11-24T06:23:17.925Z,18.17
2016-11-24T06:23:50.264Z,18.17
2016-11-24T06:24:22.590Z,18.19
2016-11-24T06:24:54.908Z,18.16
2016-11-24T06:25:27.226Z,18.19
2016-11-24T06:25:59.538Z,18.2
2016-11-24T06:26:31.870Z,18.19
2016-11-24T06:27:04.209Z,18.17
2016-11-24T06:27:36.515Z,18.19
2016-11-24T06:28:10.657Z,18.21
2016-11-24T06:28:43.916Z,18.2
2016-11-24T06:29:16.236Z,18.19
2016-11-24T06:29:49.539Z,18.21
2016-11-24T06:30:22.561Z,18.17
2016-11-24T06:30:54.866Z,18.17
2016-11-24T06:31:27.194Z,18.19
2016-11-24T06:31:59.685Z,18.17
2016-11-24T06:32:32.919Z,18.2
2016-11-24T06:33:06.057Z,18.2
2016-11-24T06:33:39.493Z,18.19
2016-11-24T06:34:11.822Z,18.16
2016-11-24T06:34:44.219Z,18.24
2016-11-24T06:35:16.677Z,18.17
2016-11-24T06:35:49.015Z,18.24
2016-11-24T06:36:21.336Z,18.2
2016-11-24T06:36:53.655Z,18.16
2016-11-24T06:37:25.997Z,18.2
2016-11-24T06:37:58.321Z,18.27
2016-11-24T06:38:31.590Z,18.19
2016-11-24T06:39:05.107Z,18.17
2016-11-24T06:39:38.413Z,18.17
2016-11-24T06:40:10.748Z,18.17
2016-11-24T06:40:43.103Z,18.17
2016-11-24T06:41:15.418Z,18.19
2016-11-24T06:41:47.740Z,18.17
2016-11-24T06:42:20.067Z,18.14
2016-11-24T06:42:52.369Z,18.19
2016-11-24T06:43:29.673Z,18.21
2016-11-24T06:44:02.919Z,18.2
2016-11-24T06:44:35.256Z,18.17
2016-11-24T06:45:07.573Z,18.26
2016-11-24T06:45:39.882Z,18.2
2016-11-24T06:46:12.369Z,18.19
2016-11-24T06:46:44.826Z,18.19
2016-11-24T06:47:17.477Z,18.16
2016-11-24T06:47:53.654Z,18.19
2016-11-24T06:48:37.717Z,18.24
2016-11-24T06:49:10.051Z,18.2
2016-11-24T06:49:42.380Z,18.24
2016-11-24T06:50:14.734Z,18.2
2016-11-24T06:50:47.046Z,18.2
2016-11-24T06:51:19.362Z,18.24
2016-11-24T06:51:51.678Z,18.17
2016-11-24T06:52:24.007Z,18.19
2016-11-24T06:52:56.322Z,18.24
2016-11-24T06:53:28.686Z,18.17
2016-11-24T06:54:01.097Z,18.17
2016-11-24T06:54:33.618Z,18.17
2016-11-24T06:55:08.434Z,18.23
2016-11-24T06:55:40.742Z,18.21
2016-11-24T06:56:13.049Z,18.17
2016-11-24T06:56:46.535Z,18.17
2016-11-24T06:57:18.862Z,18.19
2016-11-24T06:57:51.190Z,18.24
2016-11-24T06:58:23.495Z,18.17
2016-11-24T06:58:55.807Z,18.24